createdAt,value
2022-09-20T00:04:55.804Z,99.53
2022-09-20T00:09:58.292Z,97.68
2022-09-20T00:15:00.788Z,98.10
2022-09-20T00:20:05.166Z,100.00
2022-09-20T00:25:09.145Z,100.00
2022-09-20T00:30:13.018Z,98.66
2022-09-20T00:35:17.596Z,99.24
2022-09-20T00:40:24.510Z,100.00
2022-09-20T00:45:28.556Z,100.00
2022-09-20T00:50:38.031Z,98.91
2022-09-20T00:55:46.494Z,99.63
2022-09-20T01:00:51.047Z,99.34
2022-09-20T01:05:55.866Z,99.69
2022-09-20T01:10:58.522Z,99.31
2022-09-20T01:16:02.940Z,98.58
2022-09-20T01:21:08.076Z,97.99
2022-09-20T01:26:52.570Z,99.47
2022-09-20T01:32:01.009Z,99.11
2022-09-20T01:37:11.647Z,99.76
2022-09-20T01:42:15.622Z,97.67
2022-09-20T01:47:30.912Z,99.32
2022-09-20T01:52:54.822Z,97.39
2022-09-20T01:58:33.358Z,99.69
2022-09-20T02:03:58.405Z,100.00
2022-09-20T02:09:31.530Z,100.00
2022-09-20T02:14:46.762Z,100.00
2022-09-20T02:20:06.795Z,100.00
2022-09-20T02:25:21.607Z,100.00
2022-09-20T02:30:30.011Z,100.00
2022-09-20T02:35:56.229Z,100.00
2022-09-20T02:41:35.029Z,100.00
2022-09-20T02:46:46.543Z,99.99
2022-09-20T02:51:53.493Z,98.50
2022-09-20T02:57:04.716Z,98.34
2022-09-20T03:02:13.099Z,98.58
2022-09-20T03:07:23.939Z,97.84
2022-09-20T03:12:37.041Z,97.80
2022-09-20T03:17:50.851Z,100.00
2022-09-20T03:23:02.077Z,99.94
2022-09-20T03:28:24.728Z,98.45
2022-09-20T03:33:37.944Z,98.21
2022-09-20T03:38:53.357Z,98.23
2022-09-20T03:44:19.087Z,96.59
2022-09-20T03:49:55.087Z,97.61
2022-09-20T03:55:33.595Z,99.89
2022-09-20T04:00:56.904Z,99.45
2022-09-20T04:06:14.839Z,97.67
2022-09-20T04:11:26.975Z,97.60
2022-09-20T04:16:38.779Z,94.89
2022-09-20T04:21:48.211Z,94.42
2022-09-20T04:26:59.547Z,95.46
2022-09-20T04:32:12.929Z,95.77
2022-09-20T04:37:27.764Z,95.56
2022-09-20T04:43:18.426Z,96.82
2022-09-20T04:48:54.556Z,94.96
2022-09-20T04:54:39.877Z,96.41
2022-09-20T04:59:55.691Z,98.15
2022-09-20T05:05:25.807Z,97.05
2022-09-20T05:10:57.888Z,97.08
2022-09-20T05:16:07.157Z,98.91
2022-09-20T05:21:20.963Z,95.35
2022-09-20T05:26:38.909Z,94.26
2022-09-20T05:31:50.810Z,98.01
2022-09-20T05:37:00.442Z,96.81
2022-09-20T05:42:16.042Z,100.00
2022-09-20T05:47:25.865Z,98.07
2022-09-20T05:52:44.128Z,96.54
2022-09-20T05:58:01.239Z,94.83
2022-09-20T06:03:17.429Z,95.71
2022-09-20T06:08:34.714Z,95.89
2022-09-20T06:14:00.363Z,95.41
2022-09-20T06:19:12.772Z,94.01
2022-09-20T06:24:25.717Z,98.72
2022-09-20T06:29:33.182Z,96.82
2022-09-20T06:34:37.327Z,96.89
2022-09-20T06:40:04.037Z,98.44
2022-09-20T06:45:07.245Z,95.53
2022-09-20T06:50:16.315Z,95.89
2022-09-20T06:55:28.464Z,93.66
2022-09-20T07:00:31.683Z,94.46
2022-09-20T07:05:36.268Z,92.24
2022-09-20T07:10:38.792Z,93.17
2022-09-20T07:15:41.336Z,92.69
2022-09-20T07:20:45.305Z,92.60
2022-09-20T07:25:47.950Z,92.99
2022-09-20T07:30:50.737Z,91.85
2022-09-20T07:35:55.896Z,89.96
2022-09-20T07:40:59.732Z,89.87
2022-09-20T07:46:02.330Z,89.14
2022-09-20T07:51:09.537Z,90.33
2022-09-20T07:56:14.327Z,89.91
2022-09-20T08:01:17.031Z,87.62
2022-09-20T08:06:21.411Z,88.39
2022-09-20T08:11:28.502Z,87.73
2022-09-20T08:16:32.726Z,86.38
2022-09-20T08:21:38.066Z,86.32
2022-09-20T08:26:40.796Z,85.36
2022-09-20T08:31:43.740Z,85.53
2022-09-20T08:36:51.751Z,85.29
2022-09-20T08:42:00.525Z,84.48
2022-09-20T08:47:09.827Z,82.66
2022-09-20T08:52:18.961Z,81.15
2022-09-20T08:57:21.836Z,80.86
2022-09-20T09:02:24.454Z,80.59
2022-09-20T09:07:29.077Z,79.97
2022-09-20T09:12:36.747Z,80.22
2022-09-20T09:17:39.170Z,79.44
2022-09-20T09:22:45.779Z,79.40
2022-09-20T09:27:57.019Z,76.79
2022-09-20T09:33:18.749Z,78.21
2022-09-20T09:38:26.040Z,75.92
2022-09-20T09:43:32.512Z,76.41
2022-09-20T09:48:37.217Z,75.61
2022-09-20T09:53:43.575Z,75.19
2022-09-20T09:59:02.532Z,74.81
2022-09-20T10:04:14.930Z,72.49
2022-09-20T10:09:28.408Z,71.01
2022-09-20T10:14:45.586Z,73.07
2022-09-20T10:20:01.982Z,71.96
2022-09-20T10:25:17.160Z,68.52
2022-09-20T10:30:22.038Z,67.90
2022-09-20T10:35:30.925Z,67.73
2022-09-20T10:40:57.565Z,69.54
2022-09-20T10:46:31.288Z,62.50
2022-09-20T10:51:45.633Z,66.68
2022-09-20T10:56:56.355Z,55.44
2022-09-20T11:02:14.676Z,52.17
2022-09-20T11:07:20.440Z,51.59
2022-09-20T11:12:29.697Z,43.07
2022-09-20T11:17:36.945Z,43.47
2022-09-20T11:22:44.947Z,46.19
2022-09-20T11:27:54.733Z,46.29
2022-09-20T11:33:02.998Z,42.20
2022-09-20T11:38:14.178Z,41.07
2022-09-20T11:43:20.029Z,48.84
2022-09-20T11:48:26.884Z,45.31
2022-09-20T11:53:43.000Z,42.69
2022-09-20T11:58:49.208Z,48.12
2022-09-20T12:04:14.164Z,52.73
2022-09-20T12:09:26.389Z,52.08
2022-09-20T12:14:32.307Z,48.03
2022-09-20T12:19:40.259Z,43.29
2022-09-20T12:24:45.489Z,36.58
2022-09-20T12:30:17.539Z,35.65
2022-09-20T12:35:59.917Z,36.46
2022-09-20T12:41:07.817Z,33.08
2022-09-20T12:46:21.910Z,34.86
2022-09-20T12:51:59.231Z,38.71
2022-09-20T12:57:19.225Z,35.44
2022-09-20T13:02:57.495Z,37.06
2022-09-20T13:08:03.463Z,43.24
2022-09-20T13:13:17.040Z,37.25
2022-09-20T13:18:22.128Z,41.51
2022-09-20T13:23:27.983Z,42.67
2022-09-20T13:28:38.394Z,34.60
2022-09-20T13:33:43.246Z,34.49
2022-09-20T13:38:48.300Z,41.37
2022-09-20T13:43:52.056Z,40.63
2022-09-20T13:49:17.541Z,40.16
2022-09-20T13:54:27.207Z,45.15
2022-09-20T13:59:34.559Z,50.67
2022-09-20T14:04:40.462Z,56.18
2022-09-20T14:09:43.716Z,43.35
2022-09-20T14:14:47.529Z,43.27
2022-09-20T14:19:54.520Z,43.03
2022-09-20T14:25:01.338Z,51.84
2022-09-20T14:30:07.366Z,57.13
2022-09-20T14:35:17.657Z,61.32
2022-09-20T14:40:23.865Z,62.63
2022-09-20T14:45:32.568Z,63.46
2022-09-20T14:50:39.255Z,64.55
2022-09-20T14:55:58.979Z,64.56
2022-09-20T15:01:05.948Z,64.62
2022-09-20T15:06:14.643Z,66.28
2022-09-20T15:11:17.829Z,65.76
2022-09-20T15:16:22.365Z,65.85
2022-09-20T15:21:28.854Z,66.10
2022-09-20T15:26:34.545Z,68.16
2022-09-20T15:31:37.339Z,70.19
2022-09-20T15:36:42.730Z,69.76
2022-09-20T15:41:46.073Z,69.90
2022-09-20T15:46:50.751Z,68.28
2022-09-20T15:51:54.668Z,71.10
2022-09-20T15:56:58.421Z,71.45
2022-09-20T16:02:02.302Z,69.55
2022-09-20T16:07:09.559Z,69.57
2022-09-20T16:12:12.115Z,75.19
2022-09-20T16:17:14.694Z,73.71
2022-09-20T16:22:19.622Z,76.65
2022-09-20T16:27:22.300Z,79.05
2022-09-20T16:32:24.797Z,81.76
2022-09-20T16:37:32.751Z,79.25
2022-09-20T16:42:35.288Z,76.46
2022-09-20T16:47:37.883Z,86.22
2022-09-20T16:52:41.982Z,81.62
2022-09-20T16:57:44.429Z,80.83
2022-09-20T17:02:47.976Z,80.39
2022-09-20T17:07:51.875Z,80.74
2022-09-20T17:12:58.022Z,82.29
2022-09-20T17:18:00.552Z,82.78
2022-09-20T17:23:07.961Z,85.27
2022-09-20T17:28:10.564Z,84.36
2022-09-20T17:33:13.223Z,83.86
2022-09-20T17:38:17.520Z,92.09
2022-09-20T17:43:19.980Z,91.38
2022-09-20T17:48:24.322Z,90.45
2022-09-20T17:53:28.122Z,90.11
2022-09-20T17:58:31.310Z,94.33
2022-09-20T18:03:38.114Z,96.65
2022-09-20T18:08:42.675Z,93.82
2022-09-20T18:13:45.875Z,100.00
2022-09-20T18:18:49.676Z,100.00
2022-09-20T18:23:54.183Z,100.00
2022-09-20T18:28:58.022Z,100.00
2022-09-20T18:34:01.203Z,100.00
2022-09-20T18:39:06.072Z,100.00
2022-09-20T18:44:09.050Z,100.00
2022-09-20T18:49:15.190Z,97.94
2022-09-20T18:54:19.765Z,95.63
2022-09-20T18:59:24.129Z,95.66
2022-09-20T19:04:35.433Z,99.47
2022-09-20T19:09:47.463Z,94.40
2022-09-20T19:15:05.847Z,100.00
2022-09-20T19:20:19.700Z,100.00
2022-09-20T19:25:29.615Z,95.09
2022-09-20T19:30:32.927Z,93.20
2022-09-20T19:35:39.427Z,94.06
2022-09-20T19:40:59.563Z,95.03
2022-09-20T19:46:13.435Z,93.08
2022-09-20T19:51:17.071Z,90.55
2022-09-20T19:56:25.674Z,90.99
2022-09-20T20:01:29.023Z,91.26
2022-09-20T20:06:36.272Z,91.36
2022-09-20T20:11:48.720Z,90.18
2022-09-20T20:17:01.603Z,90.54
2022-09-20T20:22:12.694Z,93.55
2022-09-20T20:27:16.711Z,90.62
2022-09-20T20:32:19.461Z,90.59
2022-09-20T20:37:24.314Z,91.08
2022-09-20T20:42:30.804Z,91.16
2022-09-20T20:47:34.385Z,96.28
2022-09-20T20:52:37.235Z,100.00
2022-09-20T20:57:41.298Z,99.18
2022-09-20T21:02:45.057Z,100.00
2022-09-20T21:07:51.608Z,100.00
2022-09-20T21:12:56.323Z,100.00
2022-09-20T21:17:59.176Z,100.00
2022-09-20T21:23:01.803Z,100.00
2022-09-20T21:28:05.877Z,100.00
2022-09-20T21:33:08.574Z,100.00
2022-09-20T21:38:11.464Z,100.00
2022-09-20T21:43:15.578Z,100.00
2022-09-20T21:48:18.755Z,100.00
2022-09-20T21:53:21.361Z,100.00
2022-09-20T21:58:25.780Z,100.00
2022-09-20T22:03:33.424Z,100.00
2022-09-20T22:08:36.978Z,100.00
2022-09-20T22:13:44.959Z,100.00
2022-09-20T22:18:48.314Z,100.00
2022-09-20T22:23:52.866Z,100.00
2022-09-20T22:28:56.860Z,100.00
2022-09-20T22:34:02.061Z,100.00
2022-09-20T22:39:07.322Z,100.00
2022-09-20T22:44:12.372Z,100.00
2022-09-20T22:49:14.815Z,100.00
2022-09-20T22:54:17.530Z,100.00
2022-09-20T22:59:21.880Z,100.00
2022-09-20T23:04:24.563Z,99.55
2022-09-20T23:09:29.637Z,98.97
2022-09-20T23:14:33.665Z,97.94
2022-09-20T23:19:36.361Z,99.96
2022-09-20T23:24:39.129Z,100.00
2022-09-20T23:29:42.870Z,98.12
2022-09-20T23:34:45.319Z,100.00
2022-09-20T23:39:47.757Z,100.00
2022-09-20T23:44:51.925Z,100.00
2022-09-20T23:49:54.626Z,100.00
2022-09-20T23:54:57.328Z,100.00
